ESOK 011650Z AUTO 19008KT 9999 NCD 26/08 Q1024